Time;durP1;ratioP1;P1;durP2;ratioP2;P2;SDS_P1;SDS_P2;PMS_P1;PMS_P2;Temp;Humidity;BMP_temperature;BMP_pressure;BME280_temperature;BME280_humidity;BME280_pressure;Samples;Min_cycle;Max_cycle;Signal;HPM_P1;HPM_P2
2023/02/12 00:00:08;;;;;;;8.55;6.93;;;27.60;83.50;;;;;;5084572;28;20028;-46
2023/02/12 00:02:35;;;;;;;10.65;7.28;;;27.60;83.60;;;;;;5084019;28;20033;-54
2023/02/12 00:05:01;;;;;;;9.50;6.50;;;27.60;83.40;;;;;;5084063;28;20027;-46
2023/02/12 00:07:30;;;;;;;9.63;6.55;;;27.60;83.60;;;;;;5084131;28;20035;-48
2023/02/12 00:09:56;;;;;;;11.43;6.80;;;27.60;83.40;;;;;;5084226;28;20100;-43
2023/02/12 00:12:23;;;;;;;9.82;6.75;;;27.60;83.40;;;;;;5083934;28;20221;-51
2023/02/12 00:14:50;;;;;;;11.40;7.22;;;27.50;83.20;;;;;;5084366;28;20305;-46
2023/02/12 00:17:16;;;;;;;11.10;7.35;;;27.50;83.10;;;;;;5084120;28;20043;-46
2023/02/12 00:19:43;;;;;;;9.35;6.90;;;27.50;83.00;;;;;;5084750;28;20067;-45
2023/02/12 00:22:09;;;;;;;10.18;7.05;;;27.50;83.00;;;;;;5084063;28;20321;-49
2023/02/12 00:24:36;;;;;;;12.73;7.35;;;27.50;83.00;;;;;;5084171;28;20028;-43
2023/02/12 00:27:02;;;;;;;9.43;6.72;;;27.50;83.00;;;;;;5084024;28;20135;-42
2023/02/12 00:29:29;;;;;;;9.60;7.25;;;27.40;82.70;;;;;;5084311;28;20092;-53
2023/02/12 00:31:56;;;;;;;8.25;6.72;;;27.50;82.90;;;;;;5083707;28;20078;-48
2023/02/12 00:34:22;;;;;;;10.43;7.03;;;27.40;82.60;;;;;;5084692;28;20081;-47
2023/02/12 00:36:49;;;;;;;10.38;6.85;;;27.50;82.70;;;;;;5087956;28;20078;-49
2023/02/12 00:39:15;;;;;;;9.32;6.63;;;27.40;82.60;;;;;;5087937;28;20292;-47
2023/02/12 00:41:42;;;;;;;12.57;7.60;;;27.40;82.70;;;;;;5087980;28;20040;-46
2023/02/12 00:44:10;;;;;;;10.93;7.60;;;27.40;82.70;;;;;;5087914;28;20029;-50
2023/02/12 00:46:36;;;;;;;11.05;7.55;;;27.40;82.70;;;;;;5087672;28;20079;-47
2023/02/12 00:49:03;;;;;;;9.15;7.22;;;27.40;82.80;;;;;;5088214;28;20083;-50
2023/02/12 00:51:29;;;;;;;7.82;6.80;;;27.40;82.90;;;;;;5087856;28;20029;-43
2023/02/12 00:53:57;;;;;;;12.00;6.95;;;27.30;82.90;;;;;;5087920;28;20047;-46
2023/02/12 00:56:23;;;;;;;8.13;6.63;;;27.30;82.80;;;;;;5087394;28;20023;-46
2023/02/12 00:58:50;;;;;;;8.50;7.30;;;27.40;82.90;;;;;;5087662;28;20059;-43
2023/02/12 01:01:17;;;;;;;10.55;7.50;;;27.40;83.00;;;;;;5087633;28;20023;-42
2023/02/12 01:03:44;;;;;;;10.77;7.95;;;27.30;82.90;;;;;;5087218;28;20024;-46
2023/02/12 01:06:10;;;;;;;12.40;7.93;;;27.30;82.90;;;;;;5087566;28;20033;-45
2023/02/12 01:08:37;;;;;;;9.35;7.03;;;27.30;82.70;;;;;;5087594;28;20328;-48
2023/02/12 01:11:05;;;;;;;10.70;7.32;;;27.30;82.60;;;;;;5087191;28;20036;-52
2023/02/12 01:13:33;;;;;;;9.80;7.60;;;27.30;82.50;;;;;;5087237;28;20291;-44
2023/02/12 01:16:07;;;;;;;10.40;7.85;;;27.30;82.60;;;;;;5087255;28;20059;-51
2023/02/12 01:18:35;;;;;;;8.13;5.78;;;27.30;82.50;;;;;;5087224;28;20177;-44
2023/02/12 01:21:07;;;;;;;11.75;8.75;;;27.30;82.50;;;;;;5087125;28;20363;-50
2023/02/12 01:23:33;;;;;;;13.02;8.13;;;27.30;82.70;;;;;;5086932;28;20058;-55
2023/02/12 01:26:00;;;;;;;11.52;7.45;;;27.30;82.50;;;;;;5087044;28;20032;-49
2023/02/12 01:28:26;;;;;;;8.40;6.63;;;27.30;82.50;;;;;;5087376;28;20029;-48
2023/02/12 01:30:53;;;;;;;9.13;6.43;;;27.30;82.40;;;;;;5086955;28;20020;-51
2023/02/12 01:33:20;;;;;;;11.52;7.18;;;27.30;82.40;;;;;;5087022;28;20048;-42
2023/02/12 01:35:47;;;;;;;11.63;7.20;;;27.30;82.30;;;;;;5086843;28;20060;-51
2023/02/12 01:38:14;;;;;;;8.95;7.68;;;27.30;82.20;;;;;;5087106;28;20024;-48
2023/02/12 01:40:41;;;;;;;8.68;7.30;;;27.30;82.10;;;;;;5086738;28;20031;-45
2023/02/12 01:43:11;;;;;;;7.20;6.47;;;27.20;82.00;;;;;;5086671;28;20025;-42
2023/02/12 01:45:48;;;;;;;8.05;6.55;;;27.20;82.00;;;;;;5086568;28;20040;-42
2023/02/12 01:48:18;;;;;;;9.57;6.55;;;27.20;82.10;;;;;;5086716;28;20337;-44
2023/02/12 01:50:48;;;;;;;6.88;6.18;;;27.30;82.00;;;;;;5086578;28;20032;-41
2023/02/12 01:53:19;;;;;;;8.77;6.50;;;27.20;82.10;;;;;;5086562;28;20048;-44
2023/02/12 01:55:48;;;;;;;7.55;6.65;;;27.20;82.10;;;;;;5086534;28;20059;-43
2023/02/12 01:58:16;;;;;;;10.20;6.57;;;27.20;82.10;;;;;;5086460;28;20020;-44
2023/02/12 02:00:42;;;;;;;8.70;6.28;;;27.20;82.00;;;;;;5086666;28;20055;-49
2023/02/12 02:03:09;;;;;;;9.00;6.32;;;27.20;82.10;;;;;;5086499;28;20047;-44
2023/02/12 02:05:58;;;;;;;33.97;8.15;;;27.20;82.10;;;;;;5086369;28;20032;-43
2023/02/12 02:08:25;;;;;;;26.92;7.45;;;27.20;81.90;;;;;;5086344;28;20048;-43
2023/02/12 02:10:52;;;;;;;23.17;7.05;;;27.20;82.10;;;;;;5086247;28;20107;-44
2023/02/12 02:16:23;;;;;;;32.78;8.43;;;27.20;81.90;;;;;;5086102;28;20326;-46
2023/02/12 02:18:59;;;;;;;34.72;8.55;;;27.20;81.90;;;;;;5086372;28;20036;-48
2023/02/12 02:21:45;;;;;;;13.40;6.70;;;27.10;81.80;;;;;;5085914;28;20032;-49
2023/02/12 02:24:46;;;;;;;21.90;7.13;;;27.10;81.70;;;;;;5086420;28;20375;-52
2023/02/12 02:27:28;;;;;;;12.23;6.43;;;27.10;81.80;;;;;;5066588;28;20336;-47
2023/02/12 02:30:31;;;;;;;15.23;6.38;;;27.10;82.30;;;;;;5086154;28;20035;-43
2023/02/12 02:33:04;;;;;;;13.98;5.85;;;27.10;81.70;;;;;;5085806;28;20033;-43
2023/02/12 02:35:56;;;;;;;7.97;5.60;;;27.10;81.70;;;;;;5085984;28;20032;-45
2023/02/12 02:38:31;;;;;;;;;;;27.10;81.70;;;;;;5064983;28;20032;-47
2023/02/12 02:41:05;;;;;;;11.48;5.90;;;27.10;81.60;;;;;;5085982;28;19909;-50
2023/02/12 02:43:40;;;;;;;7.63;5.50;;;27.10;81.70;;;;;;5085807;28;20035;-44
2023/02/12 02:46:38;;;;;;;7.38;5.07;;;27.10;81.60;;;;;;5085191;28;20052;-47
2023/02/12 02:49:10;;;;;;;9.93;5.55;;;27.00;81.50;;;;;;5085581;28;20051;-50
2023/02/12 02:51:40;;;;;;;;;;;27.00;81.50;;;;;;5086034;28;20036;-44
2023/02/12 02:54:18;;;;;;;9.05;5.82;;;27.00;81.40;;;;;;5085259;28;19919;-51
2023/02/12 02:56:49;;;;;;;8.15;5.85;;;27.00;81.50;;;;;;5084983;28;20056;-45
2023/02/12 02:59:26;;;;;;;11.57;6.07;;;27.00;81.50;;;;;;5084898;28;20021;-51
2023/02/12 03:01:59;;;;;;;7.75;5.22;;;27.00;81.30;;;;;;5085385;28;20024;-44
2023/02/12 03:04:40;;;;;;;8.18;5.18;;;27.00;81.30;;;;;;5085452;28;20166;-43
2023/02/12 03:07:19;;;;;;;7.32;5.15;;;27.00;81.90;;;;;;5085223;28;20037;-44
2023/02/12 03:10:12;;;;;;;8.48;5.25;;;27.00;81.30;;;;;;5085544;28;20029;-45
2023/02/12 03:12:55;;;;;;;7.28;4.80;;;27.00;81.20;;;;;;5085118;28;20214;-45
2023/02/12 03:15:27;;;;;;;;;;;27.00;81.10;;;;;;5086262;28;20036;-50
2023/02/12 03:17:55;;;;;;;8.55;4.88;;;27.00;81.00;;;;;;5085223;28;19946;-48
2023/02/12 03:20:29;;;;;;;5.13;4.47;;;27.00;81.00;;;;;;5085133;28;20036;-47
2023/02/12 03:23:04;;;;;;;8.68;5.30;;;27.00;81.00;;;;;;5084453;28;20036;-54
2023/02/12 03:25:55;;;;;;;7.95;5.00;;;27.00;80.90;;;;;;5084480;28;20081;-44
2023/02/12 03:28:34;;;;;;;8.05;4.60;;;27.00;80.80;;;;;;5077006;28;20044;-46
2023/02/12 03:31:18;;;;;;;7.32;4.68;;;27.00;80.80;;;;;;5084203;28;20244;-42
2023/02/12 03:34:00;;;;;;;8.38;4.70;;;27.00;80.70;;;;;;5084488;28;20237;-49
2023/02/12 03:36:39;;;;;;;9.45;4.65;;;27.00;80.70;;;;;;5084464;28;20055;-49
2023/02/12 03:39:44;;;;;;;6.55;4.80;;;27.00;80.50;;;;;;5084612;28;20077;-43
2023/02/12 03:42:24;;;;;;;9.15;4.60;;;27.00;80.70;;;;;;5068963;28;20032;-49
2023/02/12 03:45:08;;;;;;;12.50;5.18;;;27.00;80.50;;;;;;5084602;28;20039;-43
2023/02/12 03:47:41;;;;;;;9.52;4.68;;;26.90;80.40;;;;;;5084378;28;20028;-43
2023/02/12 03:50:18;;;;;;;5.63;4.40;;;27.00;80.50;;;;;;5084874;28;20044;-52
2023/02/12 03:52:46;;;;;;;7.38;4.60;;;26.90;80.30;;;;;;5084301;28;20033;-46
2023/02/12 03:55:14;;;;;;;6.30;4.60;;;26.90;80.30;;;;;;5084593;28;20028;-51
2023/02/12 03:57:51;;;;;;;7.55;4.88;;;26.90;80.20;;;;;;5084579;28;20050;-45
2023/02/12 04:00:24;;;;;;;6.30;4.47;;;26.90;80.20;;;;;;5084913;28;20024;-53
2023/02/12 04:02:52;;;;;;;6.32;5.13;;;26.90;80.20;;;;;;5084348;28;20056;-51
2023/02/12 04:05:24;;;;;;;5.82;4.78;;;26.90;80.10;;;;;;5084773;28;20117;-45
2023/02/12 04:07:52;;;;;;;;;;;26.90;80.20;;;;;;5084682;28;20024;-42
2023/02/12 04:10:26;;;;;;;10.13;4.47;;;26.90;80.30;;;;;;5085188;28;19911;-49
2023/02/12 04:13:34;;;;;;;6.55;4.75;;;26.90;80.40;;;;;;5083917;28;20028;-55
2023/02/12 04:16:20;;;;;;;6.85;4.70;;;26.90;80.60;;;;;;5051092;28;20232;-51
2023/02/12 04:18:51;;;;;;;6.95;4.90;;;26.90;80.50;;;;;;5084618;28;20020;-47
2023/02/12 04:21:42;;;;;;;6.75;4.97;;;26.90;80.50;;;;;;5084374;28;20032;-49
2023/02/12 04:24:12;;;;;;;6.80;4.70;;;26.90;80.40;;;;;;5084265;28;20332;-53
2023/02/12 04:26:59;;;;;;;7.47;5.18;;;26.90;80.30;;;;;;5084435;28;20028;-52
2023/02/12 04:29:53;;;;;;;8.57;4.50;;;26.90;80.30;;;;;;5084381;28;20020;-47
2023/02/12 04:32:23;;;;;;;9.32;4.70;;;26.90;80.40;;;;;;5084074;28;20101;-46
2023/02/12 04:35:05;;;;;;;7.13;4.80;;;26.80;80.40;;;;;;5084413;28;20024;-44
2023/02/12 04:37:41;;;;;;;6.35;4.75;;;26.90;80.60;;;;;;5085054;28;20032;-52
2023/02/12 04:40:13;;;;;;;6.53;4.72;;;26.90;80.50;;;;;;5084755;28;20025;-45
2023/02/12 04:42:49;;;;;;;7.50;4.32;;;26.80;80.40;;;;;;5084317;28;20024;-51
2023/02/12 04:45:36;;;;;;;6.75;4.78;;;26.80;80.40;;;;;;5084263;28;20033;-51
2023/02/12 04:48:03;;;;;;;5.18;4.57;;;26.80;80.50;;;;;;5084174;28;20098;-45
2023/02/12 04:50:50;;;;;;;6.07;4.63;;;26.80;80.50;;;;;;5084141;28;20074;-47
2023/02/12 04:53:17;;;;;;;6.03;4.05;;;26.80;81.10;;;;;;5084312;28;20036;-50
2023/02/12 04:55:44;;;;;;;5.22;4.50;;;26.80;80.80;;;;;;5084200;28;20024;-51
2023/02/12 04:58:10;;;;;;;5.22;4.53;;;26.80;80.80;;;;;;5083753;28;20024;-50
2023/02/12 05:00:37;;;;;;;6.70;4.47;;;26.80;80.80;;;;;;5084499;28;20032;-50
2023/02/12 05:03:04;;;;;;;6.47;4.32;;;26.80;80.90;;;;;;5084023;28;20031;-50
2023/02/12 05:05:31;;;;;;;5.65;4.20;;;26.80;81.00;;;;;;5084412;28;20085;-48
2023/02/12 05:07:57;;;;;;;6.97;5.07;;;26.80;81.00;;;;;;5084156;28;20028;-47
2023/02/12 05:10:24;;;;;;;5.55;4.18;;;26.80;80.80;;;;;;5084678;28;20351;-50
2023/02/12 05:12:54;;;;;;;6.47;4.28;;;26.80;80.80;;;;;;5084327;28;20028;-53
2023/02/12 05:15:22;;;;;;;6.38;4.53;;;26.80;80.70;;;;;;5084095;28;20031;-44
2023/02/12 05:17:48;;;;;;;6.35;4.60;;;26.80;80.70;;;;;;5083591;28;20043;-47
2023/02/12 05:20:15;;;;;;;7.57;4.97;;;26.80;80.70;;;;;;5084809;28;20024;-44
2023/02/12 05:22:41;;;;;;;5.75;4.40;;;26.80;80.60;;;;;;5087253;28;20041;-48
2023/02/12 05:25:08;;;;;;;7.55;4.68;;;26.80;80.60;;;;;;5088189;28;20016;-51
2023/02/12 05:27:34;;;;;;;7.47;4.53;;;26.80;80.70;;;;;;5087682;28;20236;-48
2023/02/12 05:30:01;;;;;;;8.30;4.43;;;26.80;80.60;;;;;;5087736;28;20032;-49
2023/02/12 05:32:28;;;;;;;10.07;4.68;;;26.80;80.70;;;;;;5087213;28;20032;-44
2023/02/12 05:34:54;;;;;;;11.95;4.75;;;26.70;81.20;;;;;;5088156;28;20059;-47
2023/02/12 05:37:21;;;;;;;4.72;4.22;;;26.70;80.80;;;;;;5086879;28;20028;-43
2023/02/12 05:39:49;;;;;;;8.70;4.88;;;26.70;81.00;;;;;;5087495;28;20021;-47
2023/02/12 05:42:15;;;;;;;6.82;4.80;;;26.70;81.00;;;;;;5087117;28;20033;-44
2023/02/12 05:44:42;;;;;;;6.43;4.60;;;26.70;81.10;;;;;;5087163;28;20055;-52
2023/02/12 05:47:09;;;;;;;5.65;4.93;;;26.70;81.10;;;;;;5087373;28;20036;-45
2023/02/12 05:49:35;;;;;;;7.28;4.85;;;26.70;81.20;;;;;;5087634;28;20016;-46
2023/02/12 05:52:02;;;;;;;8.77;5.32;;;26.70;81.20;;;;;;5087037;28;20092;-46
2023/02/12 05:54:30;;;;;;;8.13;4.68;;;26.70;81.20;;;;;;5087512;28;20374;-54
2023/02/12 05:56:57;;;;;;;9.23;4.80;;;26.70;81.40;;;;;;5087503;28;20122;-48
2023/02/12 05:59:24;;;;;;;6.22;4.88;;;26.70;81.50;;;;;;5087309;28;20024;-47
2023/02/12 06:01:51;;;;;;;7.93;4.82;;;26.70;81.70;;;;;;5087023;28;20043;-51
2023/02/12 06:04:24;;;;;;;5.75;4.57;;;26.60;81.70;;;;;;5087015;28;20313;-48
2023/02/12 06:06:52;;;;;;;7.45;5.15;;;26.60;81.70;;;;;;5086766;28;20035;-50
2023/02/12 06:09:19;;;;;;;8.20;4.75;;;26.60;81.70;;;;;;5087392;28;20059;-51
2023/02/12 06:11:45;;;;;;;11.32;4.53;;;26.60;81.90;;;;;;5085179;28;20047;-44
2023/02/12 06:14:17;;;;;;;6.65;4.80;;;26.60;81.80;;;;;;5085897;28;20091;-46
2023/02/12 06:16:49;;;;;;;6.57;4.53;;;26.70;82.00;;;;;;5079096;28;20062;-50
2023/02/12 06:19:16;;;;;;;10.25;4.65;;;26.70;81.90;;;;;;5065962;28;20033;-49
2023/02/12 06:21:43;;;;;;;10.02;5.20;;;26.80;81.80;;;;;;5065756;28;20040;-45
2023/02/12 06:24:12;;;;;;;7.10;5.10;;;26.80;81.50;;;;;;5065927;28;20037;-44
2023/02/12 06:26:39;;;;;;;6.10;5.00;;;26.90;81.60;;;;;;5065598;28;20017;-45
2023/02/12 06:29:05;;;;;;;7.30;4.90;;;26.90;81.50;;;;;;5065895;28;20056;-44
2023/02/12 06:31:34;;;;;;;7.70;4.95;;;26.90;81.40;;;;;;5065275;28;20025;-45
2023/02/12 06:34:03;;;;;;;6.65;4.30;;;26.90;81.40;;;;;;5064931;28;20082;-45
2023/02/12 06:36:30;;;;;;;7.28;4.75;;;26.90;81.30;;;;;;5065595;28;20036;-52
2023/02/12 06:38:57;;;;;;;6.88;4.72;;;26.90;81.20;;;;;;5066282;28;20052;-46
2023/02/12 06:41:23;;;;;;;7.15;4.40;;;26.90;81.10;;;;;;5085234;28;20050;-49
2023/02/12 06:43:50;;;;;;;7.72;4.43;;;26.90;81.20;;;;;;5085411;28;20239;-49
2023/02/12 06:46:17;;;;;;;6.90;4.68;;;26.90;81.10;;;;;;5085334;28;20052;-41
2023/02/12 06:48:43;;;;;;;8.43;4.82;;;26.90;81.10;;;;;;5085229;28;20382;-48
2023/02/12 06:51:11;;;;;;;8.00;5.07;;;26.90;81.10;;;;;;5085283;28;20032;-45
2023/02/12 06:53:38;;;;;;;6.47;4.53;;;26.90;81.00;;;;;;5085186;28;20104;-44
2023/02/12 06:56:10;;;;;;;7.72;4.75;;;26.90;81.00;;;;;;5085092;28;20047;-47
2023/02/12 06:58:37;;;;;;;;;;;26.90;80.90;;;;;;5085583;28;20017;-43
2023/02/12 07:01:25;;;;;;;6.30;4.53;;;26.90;80.70;;;;;;5084979;28;19905;-54
2023/02/12 07:03:58;;;;;;;6.30;4.78;;;26.90;80.70;;;;;;5085117;28;20314;-44
2023/02/12 07:06:28;;;;;;;7.22;4.93;;;26.90;80.50;;;;;;5084931;28;20035;-45
2023/02/12 07:08:55;;;;;;;8.55;5.18;;;26.90;80.60;;;;;;5085029;28;20096;-45
2023/02/12 07:11:29;;;;;;;7.45;5.57;;;26.90;80.70;;;;;;5084781;28;20058;-45
2023/02/12 07:13:55;;;;;;;9.90;5.82;;;26.90;80.80;;;;;;5084892;28;20032;-46
2023/02/12 07:16:23;;;;;;;10.02;5.97;;;26.90;80.70;;;;;;5084747;28;20024;-52
2023/02/12 07:18:49;;;;;;;8.27;5.53;;;26.90;80.70;;;;;;5084869;28;20024;-56
2023/02/12 07:21:17;;;;;;;8.27;5.68;;;26.90;80.70;;;;;;5084664;28;20028;-49
2023/02/12 07:23:48;;;;;;;8.25;5.60;;;26.90;80.80;;;;;;5083996;28;20033;-42
2023/02/12 07:26:16;;;;;;;8.83;5.20;;;26.90;80.80;;;;;;5084557;28;20032;-45
2023/02/12 07:28:42;;;;;;;7.22;5.43;;;26.90;80.80;;;;;;5084697;28;20028;-56
2023/02/12 07:31:17;;;;;;;6.95;5.05;;;26.90;80.90;;;;;;5084547;28;20028;-52
2023/02/12 07:33:45;;;;;;;6.68;4.82;;;26.90;80.90;;;;;;5083775;28;20339;-47
2023/02/12 07:36:15;;;;;;;8.98;5.20;;;26.90;81.00;;;;;;5084348;28;20020;-48
2023/02/12 07:38:42;;;;;;;10.13;5.47;;;26.90;81.00;;;;;;5084618;28;20032;-44
2023/02/12 07:41:19;;;;;;;7.78;5.25;;;26.90;81.00;;;;;;5084288;28;20020;-47
2023/02/12 07:43:47;;;;;;;8.23;5.13;;;26.90;81.10;;;;;;5084107;28;20044;-52
2023/02/12 07:46:20;;;;;;;6.30;4.85;;;26.90;81.10;;;;;;5084035;28;20048;-45
2023/02/12 07:48:47;;;;;;;7.40;5.07;;;26.80;81.60;;;;;;5084232;28;20103;-45
2023/02/12 07:51:18;;;;;;;7.82;5.20;;;26.90;81.20;;;;;;5084197;28;20028;-47
2023/02/12 07:53:45;;;;;;;6.88;5.22;;;26.90;81.30;;;;;;5084209;28;20063;-44
2023/02/12 07:56:17;;;;;;;6.82;5.18;;;26.80;81.20;;;;;;5084104;28;20032;-44
2023/02/12 07:58:45;;;;;;;6.13;4.80;;;26.80;81.10;;;;;;5084403;28;20024;-45
2023/02/12 08:01:14;;;;;;;5.57;4.60;;;26.90;81.30;;;;;;5083972;28;20024;-48
2023/02/12 08:03:41;;;;;;;7.57;5.45;;;26.80;81.20;;;;;;5084001;28;20239;-45
2023/02/12 08:06:13;;;;;;;8.38;5.10;;;26.80;81.10;;;;;;5084103;28;20208;-45
2023/02/12 08:08:40;;;;;;;6.10;5.50;;;26.80;81.10;;;;;;5084022;28;20216;-51
2023/02/12 08:11:09;;;;;;;7.68;5.22;;;26.90;81.10;;;;;;5082745;28;20085;-42
2023/02/12 08:13:36;;;;;;;7.75;5.18;;;26.80;81.10;;;;;;5083903;28;20040;-55
2023/02/12 08:16:05;;;;;;;5.65;5.05;;;26.80;81.10;;;;;;5083782;28;20239;-48
2023/02/12 08:18:33;;;;;;;7.45;5.35;;;26.80;81.00;;;;;;5083970;28;20367;-53
2023/02/12 08:21:04;;;;;;;7.18;5.25;;;26.90;80.90;;;;;;5083975;28;20063;-53
2023/02/12 08:23:31;;;;;;;8.02;5.35;;;26.80;80.90;;;;;;5083747;28;20032;-45
2023/02/12 08:26:27;;;;;;;7.43;5.35;;;26.80;80.80;;;;;;5083785;28;20036;-52
2023/02/12 08:29:01;;;;;;;9.43;5.63;;;26.80;80.90;;;;;;5083720;28;20029;-53
2023/02/12 08:31:29;;;;;;;7.32;5.32;;;26.80;81.00;;;;;;5067335;28;20037;-54
2023/02/12 08:33:57;;;;;;;7.95;5.78;;;26.80;81.10;;;;;;5063674;28;20029;-49
2023/02/12 08:36:26;;;;;;;7.63;5.47;;;26.80;81.00;;;;;;5063758;28;20024;-45
2023/02/12 08:38:53;;;;;;;7.35;5.15;;;26.80;81.10;;;;;;5063807;28;20259;-47
2023/02/12 08:41:22;;;;;;;7.95;5.72;;;26.80;81.10;;;;;;5063464;28;20029;-46
2023/02/12 08:43:51;;;;;;;9.85;6.22;;;26.80;81.10;;;;;;5063695;28;20037;-50
2023/02/12 08:46:20;;;;;;;7.78;5.45;;;26.80;81.10;;;;;;5063387;28;20076;-44
2023/02/12 08:48:47;;;;;;;7.50;5.55;;;26.80;81.20;;;;;;5078406;28;20038;-45
2023/02/12 08:51:20;;;;;;;5.93;5.32;;;26.80;81.10;;;;;;5083606;28;20224;-46
2023/02/12 08:53:50;;;;;;;9.02;5.50;;;26.80;81.10;;;;;;5083573;28;20213;-52
2023/02/12 08:56:18;;;;;;;8.00;5.55;;;26.80;81.10;;;;;;5085483;28;20146;-44
2023/02/12 08:58:45;;;;;;;8.68;5.05;;;26.80;81.30;;;;;;5087746;28;20033;-47
2023/02/12 09:01:17;;;;;;;6.30;5.22;;;26.80;81.30;;;;;;5087448;28;20239;-47
2023/02/12 09:03:44;;;;;;;6.95;5.10;;;26.80;81.30;;;;;;5087387;28;20067;-46
2023/02/12 09:06:12;;;;;;;8.05;5.43;;;26.80;81.30;;;;;;5087670;28;20024;-46
2023/02/12 09:08:40;;;;;;;5.55;5.00;;;26.80;81.40;;;;;;5087311;28;20251;-49
2023/02/12 09:11:17;;;;;;;5.78;5.20;;;26.80;81.40;;;;;;5087442;28;20036;-52
2023/02/12 09:13:45;;;;;;;9.55;5.45;;;26.80;81.50;;;;;;5087113;28;20099;-48
2023/02/12 09:16:13;;;;;;;7.20;5.28;;;26.80;81.60;;;;;;5086987;28;20024;-47
2023/02/12 09:18:40;;;;;;;7.82;5.47;;;26.80;81.50;;;;;;5086993;28;20025;-48
2023/02/12 09:21:10;;;;;;;8.07;5.30;;;26.80;81.50;;;;;;5076447;28;20088;-52
2023/02/12 09:23:38;;;;;;;7.63;5.30;;;26.80;81.50;;;;;;5066766;28;20024;-51
2023/02/12 09:26:09;;;;;;;6.93;5.63;;;26.80;81.60;;;;;;5066922;28;20033;-48
2023/02/12 09:28:37;;;;;;;6.63;5.40;;;26.80;81.60;;;;;;5066870;28;20021;-46
2023/02/12 09:31:08;;;;;;;7.93;5.50;;;26.80;81.80;;;;;;5049039;28;20277;-49
2023/02/12 09:33:35;;;;;;;9.00;5.28;;;26.80;81.80;;;;;;5066682;28;20096;-52
2023/02/12 09:36:04;;;;;;;10.73;5.63;;;26.80;81.90;;;;;;5066667;28;20374;-45
2023/02/12 09:38:31;;;;;;;7.45;5.28;;;26.80;81.90;;;;;;5066752;28;20108;-45
2023/02/12 09:41:25;;;;;;;8.85;5.70;;;26.80;82.00;;;;;;5066590;28;20119;-46
2023/02/12 09:44:01;;;;;;;5.72;5.03;;;26.80;81.90;;;;;;5066603;28;20033;-49
2023/02/12 09:46:43;;;;;;;7.97;4.90;;;26.80;81.90;;;;;;5066409;28;20045;-45
2023/02/12 09:49:14;;;;;;;6.30;5.10;;;26.80;82.00;;;;;;5066633;28;20316;-46
2023/02/12 09:51:44;;;;;;;6.63;4.80;;;26.80;82.00;;;;;;5066361;28;20048;-45
2023/02/12 09:54:23;;;;;;;7.75;4.93;;;26.80;81.80;;;;;;5066284;28;20078;-45
2023/02/12 09:56:54;;;;;;;7.28;5.13;;;26.70;81.40;;;;;;5066276;28;20021;-46
2023/02/12 09:59:43;;;;;;;5.93;4.88;;;26.80;81.40;;;;;;5073028;28;20111;-49
2023/02/12 10:02:18;;;;;;;9.70;5.22;;;26.70;81.20;;;;;;5066042;28;20025;-42
2023/02/12 10:04:47;;;;;;;9.35;5.25;;;26.70;81.10;;;;;;5066023;28;20043;-47
2023/02/12 10:07:16;;;;;;;7.93;5.03;;;26.80;81.10;;;;;;5065956;28;20131;-49
2023/02/12 10:10:07;;;;;;;6.47;4.80;;;26.80;81.00;;;;;;5066429;28;20037;-52
2023/02/12 10:12:57;;;;;;;7.15;5.10;;;26.80;80.80;;;;;;5065763;28;20100;-45
2023/02/12 10:16:05;;;;;;;7.50;5.10;;;26.80;80.60;;;;;;5066504;28;20032;-46
2023/02/12 10:18:53;;;;;;;6.90;5.35;;;26.80;80.70;;;;;;5045474;28;20092;-53
2023/02/12 10:21:20;;;;;;;6.47;5.00;;;26.70;80.60;;;;;;5065751;28;20017;-48
2023/02/12 10:23:55;;;;;;;6.68;4.78;;;26.80;80.40;;;;;;5065872;28;20025;-45
2023/02/12 10:26:34;;;;;;;8.43;5.18;;;26.70;80.60;;;;;;5065841;28;20032;-46
2023/02/12 10:29:26;;;;;;;7.38;4.60;;;26.70;80.60;;;;;;5085092;28;20051;-47
2023/02/12 10:32:25;;;;;;;7.47;4.87;;;26.80;80.70;;;;;;5085603;28;20078;-50
2023/02/12 10:34:54;;;;;;;7.22;5.05;;;26.70;80.80;;;;;;5065470;28;20056;-45
2023/02/12 10:37:52;;;;;;;6.07;4.80;;;26.70;80.90;;;;;;5065426;28;20397;-44
2023/02/12 10:40:31;;;;;;;8.15;5.00;;;26.70;81.10;;;;;;5061512;28;20049;-45
2023/02/12 10:43:00;;;;;;;7.13;5.05;;;26.70;81.20;;;;;;5065567;28;20025;-44
2023/02/12 10:45:46;;;;;;;6.40;5.40;;;26.70;81.50;;;;;;5065469;28;20380;-50
2023/02/12 10:48:22;;;;;;;6.13;5.18;;;26.70;81.90;;;;;;5065317;28;20135;-45
2023/02/12 10:51:07;;;;;;;7.30;4.80;;;26.70;82.00;;;;;;5084436;28;20091;-52
2023/02/12 10:53:45;;;;;;;7.47;5.00;;;26.70;82.20;;;;;;5085406;28;20034;-43
2023/02/12 10:56:11;;;;;;;10.43;5.50;;;26.70;82.30;;;;;;5085020;28;20051;-47
2023/02/12 10:58:58;;;;;;;8.48;5.50;;;26.70;82.50;;;;;;5085068;28;20043;-46
2023/02/12 11:01:33;;;;;;;7.00;4.88;;;26.70;82.80;;;;;;5084892;28;20249;-45
2023/02/12 11:04:18;;;;;;;8.07;5.43;;;26.70;82.90;;;;;;5085219;28;20096;-47
2023/02/12 11:07:06;;;;;;;8.63;5.72;;;26.70;83.10;;;;;;5084879;28;20096;-48
2023/02/12 11:09:44;;;;;;;7.53;5.53;;;26.70;83.30;;;;;;5085205;28;20300;-47
2023/02/12 11:12:47;;;;;;;6.45;5.20;;;26.70;83.50;;;;;;5084962;28;20141;-47
2023/02/12 11:15:17;;;;;;;6.40;5.13;;;26.70;83.60;;;;;;5062449;28;20032;-46
2023/02/12 11:17:54;;;;;;;9.40;5.35;;;26.70;83.60;;;;;;5082700;28;20024;-46
2023/02/12 11:20:29;;;;;;;7.30;5.80;;;26.60;83.60;;;;;;5084853;28;20040;-46
2023/02/12 11:23:02;;;;;;;8.65;5.20;;;26.60;83.80;;;;;;5084728;28;20046;-47
2023/02/12 11:25:33;;;;;;;8.27;5.80;;;26.70;83.90;;;;;;5084509;28;20033;-51
2023/02/12 11:28:16;;;;;;;6.70;5.38;;;26.60;84.00;;;;;;5084519;28;20032;-47
2023/02/12 11:30:54;;;;;;;7.43;5.60;;;26.60;83.90;;;;;;5084377;28;20103;-46
2023/02/12 11:33:27;;;;;;;7.47;5.40;;;26.60;84.00;;;;;;5084384;28;20257;-49
2023/02/12 11:36:12;;;;;;;7.85;5.05;;;26.60;84.20;;;;;;5084349;28;20216;-44
2023/02/12 11:38:54;;;;;;;8.93;5.28;;;26.60;84.20;;;;;;5084388;28;20033;-43
2023/02/12 11:41:35;;;;;;;5.97;4.95;;;26.60;84.50;;;;;;5084309;28;20099;-51
2023/02/12 11:44:22;;;;;;;12.13;5.65;;;26.60;84.50;;;;;;5084604;28;20041;-47
2023/02/12 11:46:53;;;;;;;9.77;5.45;;;26.60;84.50;;;;;;5084231;28;20044;-45
2023/02/12 11:49:24;;;;;;;9.57;5.18;;;26.60;84.50;;;;;;5084131;28;20036;-50
2023/02/12 11:51:51;;;;;;;11.13;5.75;;;26.60;84.60;;;;;;5084088;28;20040;-48
2023/02/12 11:54:23;;;;;;;7.78;5.20;;;26.60;84.60;;;;;;5084292;28;20247;-46
2023/02/12 11:56:49;;;;;;;13.70;5.35;;;26.60;84.70;;;;;;5084153;28;20024;-49
2023/02/12 11:59:37;;;;;;;12.20;5.35;;;26.60;84.70;;;;;;5084238;28;20044;-48
2023/02/12 12:02:24;;;;;;;8.43;5.30;;;26.70;84.80;;;;;;5084144;28;20044;-45
2023/02/12 12:04:55;;;;;;;9.20;5.55;;;26.60;84.70;;;;;;5084443;28;20204;-45
2023/02/12 12:07:29;;;;;;;7.95;5.70;;;26.60;84.70;;;;;;5083535;28;20032;-49
2023/02/12 12:10:11;;;;;;;7.47;5.35;;;26.60;84.70;;;;;;5082493;28;20043;-42
2023/02/12 12:12:44;;;;;;;6.85;5.22;;;26.60;84.60;;;;;;5084018;28;20032;-46
2023/02/12 12:21:36;;;;;;;7.13;5.10;;;26.60;84.60;;;;;;5081263;28;20107;-49
2023/02/12 12:24:27;;;;;;;7.57;5.05;;;26.60;84.60;;;;;;5063852;28;20086;-46
2023/02/12 12:27:23;;;;;;;6.88;5.20;;;26.60;84.60;;;;;;5063868;28;20338;-46
2023/02/12 12:30:05;;;;;;;8.88;5.10;;;26.60;84.70;;;;;;5063945;28;20033;-46
2023/02/12 12:32:36;;;;;;;5.75;5.15;;;26.60;84.60;;;;;;5067726;28;20029;-48
2023/02/12 12:35:03;;;;;;;7.97;5.43;;;26.60;84.50;;;;;;5067591;28;20039;-44
2023/02/12 12:38:02;;;;;;;8.02;5.30;;;26.60;84.60;;;;;;5067721;28;20016;-51
2023/02/12 12:40:41;;;;;;;8.98;5.90;;;26.60;84.60;;;;;;5067555;28;20029;-47
2023/02/12 12:43:20;;;;;;;9.90;6.32;;;26.60;84.60;;;;;;5067669;28;20032;-47
2023/02/12 12:45:50;;;;;;;11.95;9.02;;;26.60;84.60;;;;;;5067376;28;20071;-48
2023/02/12 12:48:32;;;;;;;14.20;10.20;;;26.60;84.60;;;;;;5067675;28;20025;-58
2023/02/12 12:51:15;;;;;;;14.57;9.18;;;26.60;84.60;;;;;;5067432;28;20044;-48
2023/02/12 12:53:51;;;;;;;11.05;8.10;;;26.60;84.60;;;;;;5067579;28;20086;-51
2023/02/12 12:56:30;;;;;;;12.07;8.30;;;26.60;84.70;;;;;;5067249;28;20306;-46
2023/02/12 12:59:08;;;;;;;9.48;7.63;;;26.60;84.70;;;;;;5067582;28;20035;-49
2023/02/12 13:01:56;;;;;;;10.70;6.90;;;26.60;84.60;;;;;;5067404;28;20036;-50
2023/02/12 13:04:47;;;;;;;9.43;6.97;;;26.60;84.50;;;;;;5067606;28;20036;-55
2023/02/12 13:07:52;;;;;;;10.13;6.53;;;26.60;84.40;;;;;;5067267;28;20061;-54
2023/02/12 13:10:47;;;;;;;7.80;6.18;;;26.60;84.40;;;;;;5051610;28;20041;-55
2023/02/12 13:13:43;;;;;;;10.27;6.32;;;26.60;84.50;;;;;;5067010;28;20032;-49
2023/02/12 13:16:16;;;;;;;8.68;6.32;;;26.60;84.60;;;;;;5066980;28;20031;-46
2023/02/12 13:18:45;;;;;;;7.80;5.88;;;26.60;84.70;;;;;;5067172;28;20305;-51
2023/02/12 13:21:30;;;;;;;8.18;6.10;;;26.60;84.80;;;;;;5067065;28;20021;-45
2023/02/12 13:24:17;;;;;;;9.05;6.05;;;26.60;84.70;;;;;;5066982;28;20044;-46
2023/02/12 13:26:58;;;;;;;7.15;5.55;;;26.60;84.70;;;;;;5076760;28;20029;-52